Whispering Oaks, Illinois
Current Conditions -  °F | °C
As of 2:54 PM on Thursday 27 Nov 2014 (Local Time) from KPIA Reporting Station
Broken Clouds Broken Clouds  
Wind Chill: 14°   Ceiling: 2100
Heat Index: 24°   Visibility: 10mi
Dew Point: 13°   Wind: 10mph
Humidity: 62%   Direction: 290°WNW
Pressure: 30.43"   Gusts: NA
Location:  40.5996°N, 89.5548°W
Report Text: KPIA 272054Z 29009KT 10SM BKN021 M04/M11 A3043 RMK AO2 SLP316 T10441106 53005
Loading
Personal Weather Stations






























Interactive Weather Map New forecast layout! Learn more

10-Day Weather Forecast

Advertisements
Track Severe Weather on mobile